ETHF/FRZ METAR and TAF weather

Enter ICAO airport designator
Station Type Date Time Source
ETHF METAR 2021/03/03 19:20 UTC NOAA

ETHF 031920Z VRB01KT 9999 BKN300 05/03 Q1024 BLU+


Station Type Date Time Source
ETHF Decoded METAR 2021/03/03 19:20 UTC NOAA

Fritzlar, Germany (ETHF) 51-07N 009-17E 181M
Mar 03, 2021 - 02:20 PM EST / 2021.03.03 1920 UTC
Wind: Variable at 1 MPH (1 KT):0
Visibility: greater than 7 mile(s):0
Sky conditions: mostly cloudy
Temperature: 41 F (5 C)
Dew Point: 37 F (3 C)
Relative Humidity: 86%
Pressure (altimeter): 30.24 in. Hg (1024 hPa)
ob: ETHF 031920Z VRB01KT 9999 BKN300 05/03 Q1024 BLU+
cycle: 19

Station Type Date Time Source
ETHF TAF 2020/09/07 12:21 UTC NOAA

TAF ETHF 071611Z 0712/0802 VRB02KT 9999 NSW FEW030 PROB30 0723/0802 VRB01KT 5000 MIFG SKC

Example: see airport list